sensor_id;sensor_type;location;lat;lon;timestamp;P1;durP1;ratioP1;P2;durP2;ratioP2
12852;SDS011;6495;51.808;7.478;2024-03-29T00:00:11;1.80;;;0.50;;
12852;SDS011;6495;51.808;7.478;2024-03-29T00:02:40;3.67;;;0.60;;
12852;SDS011;6495;51.808;7.478;2024-03-29T00:05:06;1.23;;;0.50;;
12852;SDS011;6495;51.808;7.478;2024-03-29T00:07:33;0.70;;;0.40;;
12852;SDS011;6495;51.808;7.478;2024-03-29T00:10:00;2.03;;;0.50;;
12852;SDS011;6495;51.808;7.478;2024-03-29T00:12:26;2.00;;;0.87;;
12852;SDS011;6495;51.808;7.478;2024-03-29T00:14:54;2.10;;;0.77;;
12852;SDS011;6495;51.808;7.478;2024-03-29T00:17:21;2.50;;;0.70;;
12852;SDS011;6495;51.808;7.478;2024-03-29T00:19:47;0.50;;;0.50;;
12852;SDS011;6495;51.808;7.478;2024-03-29T00:22:14;1.43;;;1.00;;
12852;SDS011;6495;51.808;7.478;2024-03-29T00:24:40;0.73;;;0.50;;
12852;SDS011;6495;51.808;7.478;2024-03-29T00:27:07;2.33;;;0.97;;
12852;SDS011;6495;51.808;7.478;2024-03-29T00:29:33;0.87;;;0.47;;
12852;SDS011;6495;51.808;7.478;2024-03-29T00:32:02;0.77;;;0.57;;
12852;SDS011;6495;51.808;7.478;2024-03-29T00:34:28;1.30;;;0.70;;
12852;SDS011;6495;51.808;7.478;2024-03-29T00:36:55;1.90;;;0.67;;
12852;SDS011;6495;51.808;7.478;2024-03-29T00:39:21;3.03;;;0.70;;
12852;SDS011;6495;51.808;7.478;2024-03-29T00:41:48;1.40;;;0.33;;
12852;SDS011;6495;51.808;7.478;2024-03-29T00:44:14;1.33;;;0.43;;
12852;SDS011;6495;51.808;7.478;2024-03-29T00:46:40;0.40;;;0.40;;
12852;SDS011;6495;51.808;7.478;2024-03-29T00:49:08;0.60;;;0.60;;
12852;SDS011;6495;51.808;7.478;2024-03-29T00:51:35;0.80;;;0.43;;
12852;SDS011;6495;51.808;7.478;2024-03-29T00:54:01;1.13;;;0.40;;
12852;SDS011;6495;51.808;7.478;2024-03-29T00:56:28;0.97;;;0.37;;
12852;SDS011;6495;51.808;7.478;2024-03-29T00:58:54;0.87;;;0.50;;
12852;SDS011;6495;51.808;7.478;2024-03-29T01:01:21;3.07;;;0.80;;
12852;SDS011;6495;51.808;7.478;2024-03-29T01:03:47;2.03;;;0.93;;
12852;SDS011;6495;51.808;7.478;2024-03-29T01:06:15;1.30;;;0.80;;
12852;SDS011;6495;51.808;7.478;2024-03-29T01:08:42;1.80;;;0.60;;
12852;SDS011;6495;51.808;7.478;2024-03-29T01:11:08;1.03;;;0.70;;
12852;SDS011;6495;51.808;7.478;2024-03-29T01:13:35;2.70;;;0.73;;
12852;SDS011;6495;51.808;7.478;2024-03-29T01:16:01;1.00;;;0.50;;
12852;SDS011;6495;51.808;7.478;2024-03-29T01:18:28;0.30;;;0.30;;
12852;SDS011;6495;51.808;7.478;2024-03-29T01:20:55;1.63;;;0.40;;
12852;SDS011;6495;51.808;7.478;2024-03-29T01:23:23;1.93;;;0.50;;
12852;SDS011;6495;51.808;7.478;2024-03-29T01:25:49;1.10;;;0.70;;
12852;SDS011;6495;51.808;7.478;2024-03-29T01:28:16;0.63;;;0.37;;
12852;SDS011;6495;51.808;7.478;2024-03-29T01:30:51;1.03;;;0.40;;
12852;SDS011;6495;51.808;7.478;2024-03-29T01:33:18;0.43;;;0.30;;
12852;SDS011;6495;51.808;7.478;2024-03-29T01:35:44;3.93;;;0.40;;
12852;SDS011;6495;51.808;7.478;2024-03-29T01:38:11;2.10;;;0.40;;
12852;SDS011;6495;51.808;7.478;2024-03-29T01:40:39;1.10;;;0.50;;
12852;SDS011;6495;51.808;7.478;2024-03-29T01:43:05;0.23;;;0.20;;
12852;SDS011;6495;51.808;7.478;2024-03-29T01:45:34;1.00;;;0.40;;
12852;SDS011;6495;51.808;7.478;2024-03-29T01:48:04;1.10;;;0.57;;
12852;SDS011;6495;51.808;7.478;2024-03-29T01:50:33;0.50;;;0.50;;
12852;SDS011;6495;51.808;7.478;2024-03-29T01:53:01;5.17;;;0.80;;
12852;SDS011;6495;51.808;7.478;2024-03-29T01:55:29;0.57;;;0.43;;
12852;SDS011;6495;51.808;7.478;2024-03-29T01:57:58;0.50;;;0.37;;
12852;SDS011;6495;51.808;7.478;2024-03-29T02:00:26;2.77;;;0.60;;
12852;SDS011;6495;51.808;7.478;2024-03-29T02:02:56;0.87;;;0.53;;
12852;SDS011;6495;51.808;7.478;2024-03-29T02:05:24;0.77;;;0.50;;
12852;SDS011;6495;51.808;7.478;2024-03-29T02:07:53;2.07;;;0.47;;
12852;SDS011;6495;51.808;7.478;2024-03-29T02:10:22;3.37;;;0.60;;
12852;SDS011;6495;51.808;7.478;2024-03-29T02:12:49;3.50;;;0.60;;
12852;SDS011;6495;51.808;7.478;2024-03-29T02:15:17;1.70;;;0.63;;
12852;SDS011;6495;51.808;7.478;2024-03-29T02:17:44;0.60;;;0.53;;
12852;SDS011;6495;51.808;7.478;2024-03-29T02:20:11;0.60;;;0.47;;
12852;SDS011;6495;51.808;7.478;2024-03-29T02:22:40;4.33;;;0.53;;
12852;SDS011;6495;51.808;7.478;2024-03-29T02:25:17;0.60;;;0.40;;
12852;SDS011;6495;51.808;7.478;2024-03-29T02:27:45;0.83;;;0.53;;
12852;SDS011;6495;51.808;7.478;2024-03-29T02:30:13;2.33;;;0.77;;
12852;SDS011;6495;51.808;7.478;2024-03-29T02:32:41;0.93;;;0.47;;
12852;SDS011;6495;51.808;7.478;2024-03-29T02:35:08;2.10;;;0.50;;
12852;SDS011;6495;51.808;7.478;2024-03-29T02:37:36;0.43;;;0.40;;
12852;SDS011;6495;51.808;7.478;2024-03-29T02:40:04;2.20;;;0.40;;
12852;SDS011;6495;51.808;7.478;2024-03-29T02:42:36;0.77;;;0.70;;
12852;SDS011;6495;51.808;7.478;2024-03-29T02:45:04;1.57;;;0.53;;
12852;SDS011;6495;51.808;7.478;2024-03-29T02:47:33;2.40;;;0.60;;
12852;SDS011;6495;51.808;7.478;2024-03-29T02:50:00;4.60;;;0.60;;
12852;SDS011;6495;51.808;7.478;2024-03-29T02:52:27;3.33;;;0.60;;
12852;SDS011;6495;51.808;7.478;2024-03-29T02:54:55;2.37;;;0.60;;
12852;SDS011;6495;51.808;7.478;2024-03-29T02:57:21;0.53;;;0.50;;
12852;SDS011;6495;51.808;7.478;2024-03-29T02:59:50;0.50;;;0.50;;
12852;SDS011;6495;51.808;7.478;2024-03-29T03:02:17;2.60;;;0.73;;
12852;SDS011;6495;51.808;7.478;2024-03-29T03:04:44;1.57;;;0.60;;
12852;SDS011;6495;51.808;7.478;2024-03-29T03:07:10;4.27;;;1.00;;
12852;SDS011;6495;51.808;7.478;2024-03-29T03:09:56;1.33;;;0.60;;
12852;SDS011;6495;51.808;7.478;2024-03-29T03:12:55;1.70;;;0.83;;
12852;SDS011;6495;51.808;7.478;2024-03-29T03:15:24;1.47;;;0.77;;
12852;SDS011;6495;51.808;7.478;2024-03-29T03:17:51;1.07;;;0.77;;
12852;SDS011;6495;51.808;7.478;2024-03-29T03:20:19;1.93;;;1.10;;
12852;SDS011;6495;51.808;7.478;2024-03-29T03:22:45;1.83;;;1.20;;
12852;SDS011;6495;51.808;7.478;2024-03-29T03:25:13;2.83;;;1.20;;
12852;SDS011;6495;51.808;7.478;2024-03-29T03:27:39;0.93;;;0.93;;
12852;SDS011;6495;51.808;7.478;2024-03-29T03:30:07;3.83;;;1.10;;
12852;SDS011;6495;51.808;7.478;2024-03-29T03:32:36;1.90;;;1.20;;
12852;SDS011;6495;51.808;7.478;2024-03-29T03:35:04;2.20;;;1.50;;
12852;SDS011;6495;51.808;7.478;2024-03-29T03:37:31;2.97;;;1.00;;
12852;SDS011;6495;51.808;7.478;2024-03-29T03:39:58;3.23;;;1.27;;
12852;SDS011;6495;51.808;7.478;2024-03-29T03:42:25;5.70;;;0.97;;
12852;SDS011;6495;51.808;7.478;2024-03-29T03:44:51;2.50;;;0.90;;
12852;SDS011;6495;51.808;7.478;2024-03-29T03:47:19;7.10;;;1.20;;
12852;SDS011;6495;51.808;7.478;2024-03-29T03:49:47;1.60;;;1.03;;
12852;SDS011;6495;51.808;7.478;2024-03-29T03:52:14;1.10;;;0.87;;
12852;SDS011;6495;51.808;7.478;2024-03-29T03:54:41;3.97;;;1.07;;
12852;SDS011;6495;51.808;7.478;2024-03-29T03:57:08;1.10;;;1.00;;
12852;SDS011;6495;51.808;7.478;2024-03-29T03:59:34;1.07;;;0.60;;
12852;SDS011;6495;51.808;7.478;2024-03-29T04:02:02;1.57;;;0.70;;
12852;SDS011;6495;51.808;7.478;2024-03-29T04:04:28;0.97;;;0.60;;
12852;SDS011;6495;51.808;7.478;2024-03-29T04:06:57;1.40;;;0.40;;
12852;SDS011;6495;51.808;7.478;2024-03-29T04:09:23;1.80;;;0.70;;
12852;SDS011;6495;51.808;7.478;2024-03-29T04:11:50;0.50;;;0.50;;
12852;SDS011;6495;51.808;7.478;2024-03-29T04:14:17;0.83;;;0.50;;
12852;SDS011;6495;51.808;7.478;2024-03-29T04:16:46;0.67;;;0.50;;
12852;SDS011;6495;51.808;7.478;2024-03-29T04:19:12;1.90;;;0.30;;
12852;SDS011;6495;51.808;7.478;2024-03-29T04:21:39;3.10;;;0.50;;
12852;SDS011;6495;51.808;7.478;2024-03-29T04:24:07;1.67;;;0.53;;
12852;SDS011;6495;51.808;7.478;2024-03-29T04:26:35;1.70;;;0.67;;
12852;SDS011;6495;51.808;7.478;2024-03-29T04:29:02;0.57;;;0.38;;
12852;SDS011;6495;51.808;7.478;2024-03-29T04:31:29;1.00;;;0.40;;
12852;SDS011;6495;51.808;7.478;2024-03-29T04:33:56;0.23;;;0.20;;
12852;SDS011;6495;51.808;7.478;2024-03-29T04:36:23;0.27;;;0.20;;
12852;SDS011;6495;51.808;7.478;2024-03-29T04:38:49;1.97;;;0.57;;
12852;SDS011;6495;51.808;7.478;2024-03-29T04:41:18;0.83;;;0.73;;
12852;SDS011;6495;51.808;7.478;2024-03-29T04:43:45;2.20;;;0.50;;
12852;SDS011;6495;51.808;7.478;2024-03-29T04:46:13;0.40;;;0.30;;
12852;SDS011;6495;51.808;7.478;2024-03-29T04:48:41;0.45;;;0.45;;
12852;SDS011;6495;51.808;7.478;2024-03-29T04:51:11;0.53;;;0.53;;
12852;SDS011;6495;51.808;7.478;2024-03-29T04:53:39;1.20;;;0.40;;
12852;SDS011;6495;51.808;7.478;2024-03-29T04:56:07;0.73;;;0.40;;
12852;SDS011;6495;51.808;7.478;2024-03-29T04:58:35;0.23;;;0.20;;
12852;SDS011;6495;51.808;7.478;2024-03-29T05:01:03;1.55;;;0.40;;
12852;SDS011;6495;51.808;7.478;2024-03-29T05:03:30;0.10;;;0.10;;
12852;SDS011;6495;51.808;7.478;2024-03-29T05:05:58;0.40;;;0.33;;
12852;SDS011;6495;51.808;7.478;2024-03-29T05:08:25;1.13;;;0.60;;
12852;SDS011;6495;51.808;7.478;2024-03-29T05:10:52;0.50;;;0.40;;
12852;SDS011;6495;51.808;7.478;2024-03-29T05:13:20;0.27;;;0.27;;
12852;SDS011;6495;51.808;7.478;2024-03-29T05:15:48;0.30;;;0.30;;
12852;SDS011;6495;51.808;7.478;2024-03-29T05:18:16;2.70;;;0.60;;
12852;SDS011;6495;51.808;7.478;2024-03-29T05:20:43;1.03;;;0.83;;
12852;SDS011;6495;51.808;7.478;2024-03-29T05:23:16;1.10;;;0.70;;
12852;SDS011;6495;51.808;7.478;2024-03-29T05:25:43;0.60;;;0.50;;
12852;SDS011;6495;51.808;7.478;2024-03-29T05:28:10;0.97;;;0.40;;
12852;SDS011;6495;51.808;7.478;2024-03-29T05:30:37;1.23;;;0.60;;
12852;SDS011;6495;51.808;7.478;2024-03-29T05:33:06;1.67;;;0.50;;
12852;SDS011;6495;51.808;7.478;2024-03-29T05:35:34;0.67;;;0.40;;
12852;SDS011;6495;51.808;7.478;2024-03-29T05:38:01;0.83;;;0.73;;
12852;SDS011;6495;51.808;7.478;2024-03-29T05:40:28;0.60;;;0.50;;
12852;SDS011;6495;51.808;7.478;2024-03-29T05:42:56;2.27;;;0.73;;
12852;SDS011;6495;51.808;7.478;2024-03-29T05:45:24;2.30;;;0.70;;
12852;SDS011;6495;51.808;7.478;2024-03-29T05:47:53;0.97;;;0.50;;
12852;SDS011;6495;51.808;7.478;2024-03-29T05:50:24;0.60;;;0.60;;
12852;SDS011;6495;51.808;7.478;2024-03-29T05:52:52;0.47;;;0.40;;
12852;SDS011;6495;51.808;7.478;2024-03-29T05:55:19;0.67;;;0.47;;
12852;SDS011;6495;51.808;7.478;2024-03-29T05:57:46;5.30;;;0.70;;
12852;SDS011;6495;51.808;7.478;2024-03-29T06:00:14;1.27;;;0.73;;
12852;SDS011;6495;51.808;7.478;2024-03-29T06:02:42;1.53;;;0.53;;
12852;SDS011;6495;51.808;7.478;2024-03-29T06:05:11;1.63;;;1.00;;
12852;SDS011;6495;51.808;7.478;2024-03-29T06:07:40;2.27;;;0.50;;
12852;SDS011;6495;51.808;7.478;2024-03-29T06:10:07;2.70;;;0.60;;
12852;SDS011;6495;51.808;7.478;2024-03-29T06:12:36;1.93;;;0.90;;
12852;SDS011;6495;51.808;7.478;2024-03-29T06:15:04;0.87;;;0.60;;
12852;SDS011;6495;51.808;7.478;2024-03-29T06:17:50;1.90;;;0.53;;
12852;SDS011;6495;51.808;7.478;2024-03-29T06:20:18;0.40;;;0.40;;
12852;SDS011;6495;51.808;7.478;2024-03-29T06:22:46;1.20;;;0.67;;
12852;SDS011;6495;51.808;7.478;2024-03-29T06:25:14;0.67;;;0.67;;
12852;SDS011;6495;51.808;7.478;2024-03-29T06:27:41;1.27;;;0.63;;
12852;SDS011;6495;51.808;7.478;2024-03-29T06:30:13;1.17;;;0.90;;
12852;SDS011;6495;51.808;7.478;2024-03-29T06:32:42;0.40;;;0.40;;
12852;SDS011;6495;51.808;7.478;2024-03-29T06:35:10;2.20;;;0.67;;
12852;SDS011;6495;51.808;7.478;2024-03-29T06:37:38;0.77;;;0.73;;
12852;SDS011;6495;51.808;7.478;2024-03-29T06:40:07;3.50;;;1.23;;
12852;SDS011;6495;51.808;7.478;2024-03-29T06:42:36;3.33;;;0.97;;
12852;SDS011;6495;51.808;7.478;2024-03-29T06:45:05;2.97;;;0.90;;
12852;SDS011;6495;51.808;7.478;2024-03-29T06:47:34;0.60;;;0.60;;
12852;SDS011;6495;51.808;7.478;2024-03-29T06:50:03;0.73;;;0.60;;
12852;SDS011;6495;51.808;7.478;2024-03-29T06:52:32;0.97;;;0.80;;
12852;SDS011;6495;51.808;7.478;2024-03-29T06:54:59;1.20;;;0.50;;
12852;SDS011;6495;51.808;7.478;2024-03-29T06:57:28;0.70;;;0.50;;
12852;SDS011;6495;51.808;7.478;2024-03-29T06:59:57;1.47;;;0.70;;
12852;SDS011;6495;51.808;7.478;2024-03-29T07:02:24;1.00;;;0.80;;
12852;SDS011;6495;51.808;7.478;2024-03-29T07:04:51;1.87;;;0.40;;
12852;SDS011;6495;51.808;7.478;2024-03-29T07:07:19;1.77;;;0.67;;
12852;SDS011;6495;51.808;7.478;2024-03-29T07:09:46;0.87;;;0.73;;
12852;SDS011;6495;51.808;7.478;2024-03-29T07:12:13;1.27;;;0.97;;
12852;SDS011;6495;51.808;7.478;2024-03-29T07:14:42;1.30;;;0.93;;
12852;SDS011;6495;51.808;7.478;2024-03-29T07:17:10;0.70;;;0.70;;
12852;SDS011;6495;51.808;7.478;2024-03-29T07:19:37;1.03;;;0.70;;
12852;SDS011;6495;51.808;7.478;2024-03-29T07:22:04;2.00;;;0.73;;
12852;SDS011;6495;51.808;7.478;2024-03-29T07:24:32;1.70;;;0.80;;
12852;SDS011;6495;51.808;7.478;2024-03-29T07:26:59;1.10;;;0.87;;
12852;SDS011;6495;51.808;7.478;2024-03-29T07:29:26;0.73;;;0.70;;
12852;SDS011;6495;51.808;7.478;2024-03-29T07:31:55;3.33;;;1.00;;
12852;SDS011;6495;51.808;7.478;2024-03-29T07:34:22;0.77;;;0.63;;
12852;SDS011;6495;51.808;7.478;2024-03-29T07:36:50;1.63;;;0.67;;
12852;SDS011;6495;51.808;7.478;2024-03-29T07:39:17;0.60;;;0.60;;
12852;SDS011;6495;51.808;7.478;2024-03-29T07:41:53;1.17;;;0.80;;
12852;SDS011;6495;51.808;7.478;2024-03-29T07:44:20;1.33;;;0.97;;
12852;SDS011;6495;51.808;7.478;2024-03-29T07:46:48;2.00;;;0.63;;
12852;SDS011;6495;51.808;7.478;2024-03-29T07:49:15;0.93;;;0.80;;
12852;SDS011;6495;51.808;7.478;2024-03-29T07:51:46;4.63;;;0.90;;
12852;SDS011;6495;51.808;7.478;2024-03-29T07:54:13;2.47;;;0.90;;
12852;SDS011;6495;51.808;7.478;2024-03-29T07:56:41;0.77;;;0.77;;
12852;SDS011;6495;51.808;7.478;2024-03-29T07:59:09;0.70;;;0.57;;
12852;SDS011;6495;51.808;7.478;2024-03-29T08:01:37;3.53;;;1.03;;
12852;SDS011;6495;51.808;7.478;2024-03-29T08:04:06;1.70;;;0.80;;
12852;SDS011;6495;51.808;7.478;2024-03-29T08:06:34;1.07;;;0.73;;
12852;SDS011;6495;51.808;7.478;2024-03-29T08:09:01;0.90;;;0.90;;
12852;SDS011;6495;51.808;7.478;2024-03-29T08:11:29;1.17;;;1.00;;
12852;SDS011;6495;51.808;7.478;2024-03-29T08:13:57;1.30;;;0.90;;
12852;SDS011;6495;51.808;7.478;2024-03-29T08:16:25;2.30;;;0.80;;
12852;SDS011;6495;51.808;7.478;2024-03-29T08:18:53;6.13;;;0.90;;
12852;SDS011;6495;51.808;7.478;2024-03-29T08:21:20;1.33;;;0.90;;
12852;SDS011;6495;51.808;7.478;2024-03-29T08:23:47;0.87;;;0.83;;
12852;SDS011;6495;51.808;7.478;2024-03-29T08:26:16;1.20;;;1.07;;
12852;SDS011;6495;51.808;7.478;2024-03-29T08:28:44;2.80;;;1.00;;
12852;SDS011;6495;51.808;7.478;2024-03-29T08:31:12;1.23;;;0.90;;
12852;SDS011;6495;51.808;7.478;2024-03-29T08:33:41;0.60;;;0.60;;
12852;SDS011;6495;51.808;7.478;2024-03-29T08:36:09;2.80;;;0.90;;
12852;SDS011;6495;51.808;7.478;2024-03-29T08:38:37;1.63;;;0.60;;
12852;SDS011;6495;51.808;7.478;2024-03-29T08:41:08;1.23;;;0.90;;
12852;SDS011;6495;51.808;7.478;2024-03-29T08:43:36;1.27;;;1.00;;
12852;SDS011;6495;51.808;7.478;2024-03-29T08:46:03;1.57;;;1.20;;
12852;SDS011;6495;51.808;7.478;2024-03-29T08:48:31;1.00;;;0.90;;
12852;SDS011;6495;51.808;7.478;2024-03-29T08:51:00;0.80;;;0.80;;
12852;SDS011;6495;51.808;7.478;2024-03-29T08:53:27;1.30;;;0.80;;
12852;SDS011;6495;51.808;7.478;2024-03-29T08:55:55;3.23;;;1.00;;
12852;SDS011;6495;51.808;7.478;2024-03-29T08:58:22;1.73;;;1.20;;
12852;SDS011;6495;51.808;7.478;2024-03-29T09:00:53;1.00;;;0.80;;
12852;SDS011;6495;51.808;7.478;2024-03-29T09:03:22;1.35;;;0.68;;
12852;SDS011;6495;51.808;7.478;2024-03-29T09:05:50;1.42;;;0.55;;
12852;SDS011;6495;51.808;7.478;2024-03-29T09:08:23;0.77;;;0.57;;
12852;SDS011;6495;51.808;7.478;2024-03-29T09:10:55;0.50;;;0.50;;
12852;SDS011;6495;51.808;7.478;2024-03-29T09:13:23;1.10;;;0.60;;
12852;SDS011;6495;51.808;7.478;2024-03-29T09:15:51;0.75;;;0.75;;
12852;SDS011;6495;51.808;7.478;2024-03-29T09:18:21;3.05;;;0.80;;
12852;SDS011;6495;51.808;7.478;2024-03-29T09:20:58;1.15;;;1.00;;
12852;SDS011;6495;51.808;7.478;2024-03-29T09:23:29;2.38;;;1.05;;
12852;SDS011;6495;51.808;7.478;2024-03-29T09:25:57;0.80;;;0.80;;
12852;SDS011;6495;51.808;7.478;2024-03-29T09:31:18;3.08;;;0.90;;
12852;SDS011;6495;51.808;7.478;2024-03-29T09:33:46;2.25;;;0.70;;
12852;SDS011;6495;51.808;7.478;2024-03-29T09:36:19;2.35;;;0.65;;
12852;SDS011;6495;51.808;7.478;2024-03-29T09:38:51;1.20;;;0.80;;
12852;SDS011;6495;51.808;7.478;2024-03-29T09:41:21;2.03;;;0.90;;
12852;SDS011;6495;51.808;7.478;2024-03-29T09:43:57;1.38;;;1.17;;
12852;SDS011;6495;51.808;7.478;2024-03-29T09:46:30;0.77;;;0.70;;
12852;SDS011;6495;51.808;7.478;2024-03-29T09:52:31;2.63;;;1.10;;
12852;SDS011;6495;51.808;7.478;2024-03-29T09:55:01;1.15;;;0.80;;
12852;SDS011;6495;51.808;7.478;2024-03-29T09:57:31;1.80;;;1.30;;
12852;SDS011;6495;51.808;7.478;2024-03-29T10:00:02;1.48;;;1.08;;
12852;SDS011;6495;51.808;7.478;2024-03-29T10:05:24;1.90;;;1.10;;
12852;SDS011;6495;51.808;7.478;2024-03-29T10:07:54;1.15;;;0.98;;
12852;SDS011;6495;51.808;7.478;2024-03-29T10:10:24;1.05;;;0.95;;
12852;SDS011;6495;51.808;7.478;2024-03-29T10:12:54;0.98;;;0.80;;
12852;SDS011;6495;51.808;7.478;2024-03-29T10:15:23;0.70;;;0.70;;
12852;SDS011;6495;51.808;7.478;2024-03-29T10:17:53;2.45;;;1.10;;
12852;SDS011;6495;51.808;7.478;2024-03-29T10:20:21;2.22;;;1.35;;
12852;SDS011;6495;51.808;7.478;2024-03-29T10:22:55;1.58;;;0.93;;
12852;SDS011;6495;51.808;7.478;2024-03-29T10:25:32;1.08;;;1.00;;
12852;SDS011;6495;51.808;7.478;2024-03-29T10:28:00;2.50;;;1.00;;
12852;SDS011;6495;51.808;7.478;2024-03-29T10:30:28;2.95;;;1.15;;
12852;SDS011;6495;51.808;7.478;2024-03-29T10:32:56;1.92;;;1.10;;
12852;SDS011;6495;51.808;7.478;2024-03-29T10:35:26;1.88;;;1.10;;
12852;SDS011;6495;51.808;7.478;2024-03-29T10:38:02;1.08;;;0.98;;
12852;SDS011;6495;51.808;7.478;2024-03-29T10:40:33;1.55;;;1.27;;
12852;SDS011;6495;51.808;7.478;2024-03-29T10:43:01;1.77;;;1.30;;
12852;SDS011;6495;51.808;7.478;2024-03-29T10:45:33;3.35;;;1.30;;
12852;SDS011;6495;51.808;7.478;2024-03-29T10:48:14;1.00;;;0.98;;
12852;SDS011;6495;51.808;7.478;2024-03-29T10:50:43;3.05;;;1.40;;
12852;SDS011;6495;51.808;7.478;2024-03-29T10:53:13;2.38;;;1.40;;
12852;SDS011;6495;51.808;7.478;2024-03-29T10:55:43;2.25;;;1.05;;
12852;SDS011;6495;51.808;7.478;2024-03-29T10:58:15;2.53;;;1.25;;
12852;SDS011;6495;51.808;7.478;2024-03-29T11:00:52;3.08;;;0.88;;
12852;SDS011;6495;51.808;7.478;2024-03-29T11:03:26;1.50;;;1.20;;
12852;SDS011;6495;51.808;7.478;2024-03-29T11:06:09;1.27;;;1.17;;
12852;SDS011;6495;51.808;7.478;2024-03-29T11:08:42;3.53;;;1.50;;
12852;SDS011;6495;51.808;7.478;2024-03-29T11:11:16;1.90;;;1.40;;
12852;SDS011;6495;51.808;7.478;2024-03-29T11:13:53;1.20;;;1.10;;
12852;SDS011;6495;51.808;7.478;2024-03-29T11:16:30;2.22;;;1.15;;
12852;SDS011;6495;51.808;7.478;2024-03-29T11:19:07;1.45;;;1.00;;
12852;SDS011;6495;51.808;7.478;2024-03-29T11:21:36;1.25;;;1.13;;
12852;SDS011;6495;51.808;7.478;2024-03-29T11:24:08;1.10;;;1.00;;
12852;SDS011;6495;51.808;7.478;2024-03-29T11:26:38;1.00;;;0.90;;
12852;SDS011;6495;51.808;7.478;2024-03-29T11:29:07;1.63;;;1.08;;
12852;SDS011;6495;51.808;7.478;2024-03-29T11:31:46;1.30;;;0.95;;
12852;SDS011;6495;51.808;7.478;2024-03-29T11:34:19;3.25;;;1.17;;
12852;SDS011;6495;51.808;7.478;2024-03-29T11:39:39;1.35;;;1.10;;
12852;SDS011;6495;51.808;7.478;2024-03-29T11:42:16;1.23;;;1.10;;
12852;SDS011;6495;51.808;7.478;2024-03-29T11:44:44;2.03;;;1.20;;
12852;SDS011;6495;51.808;7.478;2024-03-29T11:47:16;3.08;;;1.10;;
12852;SDS011;6495;51.808;7.478;2024-03-29T11:49:55;1.63;;;1.40;;
12852;SDS011;6495;51.808;7.478;2024-03-29T11:52:27;1.35;;;1.10;;
12852;SDS011;6495;51.808;7.478;2024-03-29T11:54:56;1.13;;;0.90;;
12852;SDS011;6495;51.808;7.478;2024-03-29T11:57:30;2.05;;;1.13;;
12852;SDS011;6495;51.808;7.478;2024-03-29T12:00:00;1.42;;;1.00;;
12852;SDS011;6495;51.808;7.478;2024-03-29T12:02:32;1.75;;;1.15;;
12852;SDS011;6495;51.808;7.478;2024-03-29T12:05:07;1.75;;;1.23;;
12852;SDS011;6495;51.808;7.478;2024-03-29T12:08:04;1.83;;;1.05;;
12852;SDS011;6495;51.808;7.478;2024-03-29T12:10:50;1.02;;;0.93;;
12852;SDS011;6495;51.808;7.478;2024-03-29T12:17:40;1.90;;;0.88;;
12852;SDS011;6495;51.808;7.478;2024-03-29T12:21:19;1.65;;;1.00;;
12852;SDS011;6495;51.808;7.478;2024-03-29T12:25:15;1.38;;;1.25;;
12852;SDS011;6495;51.808;7.478;2024-03-29T12:32:07;1.25;;;0.95;;
12852;SDS011;6495;51.808;7.478;2024-03-29T12:35:21;1.10;;;0.90;;
12852;SDS011;6495;51.808;7.478;2024-03-29T12:38:32;0.90;;;0.90;;
12852;SDS011;6495;51.808;7.478;2024-03-29T12:41:37;1.75;;;0.88;;
12852;SDS011;6495;51.808;7.478;2024-03-29T12:44:15;1.15;;;0.90;;
12852;SDS011;6495;51.808;7.478;2024-03-29T12:47:18;1.30;;;0.95;;
12852;SDS011;6495;51.808;7.478;2024-03-29T12:49:59;2.50;;;1.10;;
12852;SDS011;6495;51.808;7.478;2024-03-29T12:52:39;0.98;;;0.98;;
12852;SDS011;6495;51.808;7.478;2024-03-29T12:55:26;2.03;;;1.20;;
12852;SDS011;6495;51.808;7.478;2024-03-29T12:58:11;1.63;;;1.08;;
12852;SDS011;6495;51.808;7.478;2024-03-29T13:00:59;2.25;;;1.20;;
12852;SDS011;6495;51.808;7.478;2024-03-29T13:03:33;1.40;;;1.05;;
12852;SDS011;6495;51.808;7.478;2024-03-29T13:06:08;1.60;;;1.20;;
12852;SDS011;6495;51.808;7.478;2024-03-29T13:08:45;0.90;;;0.90;;
12852;SDS011;6495;51.808;7.478;2024-03-29T13:11:54;0.93;;;0.90;;
12852;SDS011;6495;51.808;7.478;2024-03-29T13:14:54;0.80;;;0.80;;
12852;SDS011;6495;51.808;7.478;2024-03-29T13:17:59;0.98;;;0.80;;
12852;SDS011;6495;51.808;7.478;2024-03-29T13:35:07;1.30;;;1.20;;
12852;SDS011;6495;51.808;7.478;2024-03-29T13:37:38;1.20;;;1.10;;
12852;SDS011;6495;51.808;7.478;2024-03-29T13:43:10;0.95;;;0.90;;
12852;SDS011;6495;51.808;7.478;2024-03-29T13:45:37;1.38;;;0.98;;
12852;SDS011;6495;51.808;7.478;2024-03-29T13:48:11;0.90;;;0.90;;
12852;SDS011;6495;51.808;7.478;2024-03-29T13:55:36;1.20;;;0.90;;
12852;SDS011;6495;51.808;7.478;2024-03-29T13:58:04;2.22;;;1.05;;
12852;SDS011;6495;51.808;7.478;2024-03-29T14:00:42;3.22;;;0.93;;
12852;SDS011;6495;51.808;7.478;2024-03-29T14:03:11;1.05;;;0.88;;
12852;SDS011;6495;51.808;7.478;2024-03-29T14:05:38;1.88;;;0.98;;
12852;SDS011;6495;51.808;7.478;2024-03-29T14:08:06;1.30;;;0.82;;
12852;SDS011;6495;51.808;7.478;2024-03-29T14:10:33;1.08;;;1.00;;
12852;SDS011;6495;51.808;7.478;2024-03-29T14:13:03;1.48;;;1.00;;
12852;SDS011;6495;51.808;7.478;2024-03-29T14:15:31;2.60;;;0.80;;
12852;SDS011;6495;51.808;7.478;2024-03-29T14:21:04;1.45;;;0.80;;
12852;SDS011;6495;51.808;7.478;2024-03-29T14:23:32;2.05;;;0.50;;
12852;SDS011;6495;51.808;7.478;2024-03-29T14:26:12;0.82;;;0.57;;
12852;SDS011;6495;51.808;7.478;2024-03-29T14:28:41;0.68;;;0.50;;
12852;SDS011;6495;51.808;7.478;2024-03-29T14:31:09;1.65;;;0.55;;
12852;SDS011;6495;51.808;7.478;2024-03-29T14:33:36;0.70;;;0.70;;
12852;SDS011;6495;51.808;7.478;2024-03-29T14:36:04;0.50;;;0.50;;
12852;SDS011;6495;51.808;7.478;2024-03-29T14:38:41;1.00;;;0.90;;
12852;SDS011;6495;51.808;7.478;2024-03-29T14:41:08;3.03;;;0.93;;
12852;SDS011;6495;51.808;7.478;2024-03-29T14:43:36;1.27;;;0.90;;
12852;SDS011;6495;51.808;7.478;2024-03-29T14:46:05;1.75;;;0.80;;
12852;SDS011;6495;51.808;7.478;2024-03-29T14:48:32;1.67;;;0.60;;
12852;SDS011;6495;51.808;7.478;2024-03-29T14:51:00;0.68;;;0.68;;
12852;SDS011;6495;51.808;7.478;2024-03-29T14:53:28;1.42;;;0.60;;
12852;SDS011;6495;51.808;7.478;2024-03-29T14:55:55;0.30;;;0.20;;
12852;SDS011;6495;51.808;7.478;2024-03-29T14:58:24;0.68;;;0.68;;
12852;SDS011;6495;51.808;7.478;2024-03-29T15:00:52;0.43;;;0.43;;
12852;SDS011;6495;51.808;7.478;2024-03-29T15:03:21;0.60;;;0.47;;
12852;SDS011;6495;51.808;7.478;2024-03-29T15:05:49;1.00;;;0.80;;
12852;SDS011;6495;51.808;7.478;2024-03-29T15:08:20;0.75;;;0.40;;
12852;SDS011;6495;51.808;7.478;2024-03-29T15:10:55;1.45;;;0.85;;
12852;SDS011;6495;51.808;7.478;2024-03-29T15:13:30;0.52;;;0.52;;
12852;SDS011;6495;51.808;7.478;2024-03-29T15:19:01;0.55;;;0.55;;
12852;SDS011;6495;51.808;7.478;2024-03-29T15:21:45;0.90;;;0.60;;
12852;SDS011;6495;51.808;7.478;2024-03-29T15:24:19;0.98;;;0.65;;
12852;SDS011;6495;51.808;7.478;2024-03-29T15:26:54;0.70;;;0.70;;
12852;SDS011;6495;51.808;7.478;2024-03-29T15:29:24;0.68;;;0.68;;
12852;SDS011;6495;51.808;7.478;2024-03-29T15:31:50;1.45;;;0.70;;
12852;SDS011;6495;51.808;7.478;2024-03-29T15:34:19;0.38;;;0.38;;
12852;SDS011;6495;51.808;7.478;2024-03-29T15:36:48;0.63;;;0.63;;
12852;SDS011;6495;51.808;7.478;2024-03-29T15:39:17;1.25;;;0.57;;
12852;SDS011;6495;51.808;7.478;2024-03-29T15:41:46;0.70;;;0.70;;
12852;SDS011;6495;51.808;7.478;2024-03-29T15:44:14;0.63;;;0.63;;
12852;SDS011;6495;51.808;7.478;2024-03-29T15:46:43;1.63;;;0.90;;
12852;SDS011;6495;51.808;7.478;2024-03-29T15:49:11;0.98;;;0.60;;
12852;SDS011;6495;51.808;7.478;2024-03-29T15:51:39;1.10;;;1.00;;
12852;SDS011;6495;51.808;7.478;2024-03-29T15:54:07;0.68;;;0.65;;
12852;SDS011;6495;51.808;7.478;2024-03-29T15:56:38;0.80;;;0.80;;
12852;SDS011;6495;51.808;7.478;2024-03-29T16:02:37;0.80;;;0.70;;
12852;SDS011;6495;51.808;7.478;2024-03-29T16:05:19;0.68;;;0.63;;
12852;SDS011;6495;51.808;7.478;2024-03-29T16:08:10;0.40;;;0.40;;
12852;SDS011;6495;51.808;7.478;2024-03-29T16:10:49;0.60;;;0.57;;
12852;SDS011;6495;51.808;7.478;2024-03-29T16:13:30;1.55;;;0.65;;